sensor_id;sensor_type;location;lat;lon;timestamp;P1;durP1;ratioP1;P2;durP2;ratioP2
7961;SDS011;4026;43.652;24.906;2022-08-19T00:01:16;7.93;;;5.32;;
7961;SDS011;4026;43.652;24.906;2022-08-19T00:03:43;8.10;;;5.28;;
7961;SDS011;4026;43.652;24.906;2022-08-19T00:06:09;9.93;;;5.68;;
7961;SDS011;4026;43.652;24.906;2022-08-19T00:08:36;8.25;;;5.40;;
7961;SDS011;4026;43.652;24.906;2022-08-19T00:11:03;8.18;;;5.28;;
7961;SDS011;4026;43.652;24.906;2022-08-19T00:13:30;8.70;;;5.97;;
7961;SDS011;4026;43.652;24.906;2022-08-19T00:15:59;8.50;;;4.72;;
7961;SDS011;4026;43.652;24.906;2022-08-19T00:18:26;8.88;;;5.07;;
7961;SDS011;4026;43.652;24.906;2022-08-19T00:20:53;7.53;;;4.85;;
7961;SDS011;4026;43.652;24.906;2022-08-19T00:23:20;7.40;;;4.75;;
7961;SDS011;4026;43.652;24.906;2022-08-19T00:25:47;7.15;;;4.85;;
7961;SDS011;4026;43.652;24.906;2022-08-19T00:28:14;7.43;;;5.05;;
7961;SDS011;4026;43.652;24.906;2022-08-19T00:30:40;6.45;;;5.18;;
7961;SDS011;4026;43.652;24.906;2022-08-19T00:33:09;6.57;;;4.60;;
7961;SDS011;4026;43.652;24.906;2022-08-19T00:35:36;7.43;;;4.45;;
7961;SDS011;4026;43.652;24.906;2022-08-19T00:38:04;7.03;;;5.03;;
7961;SDS011;4026;43.652;24.906;2022-08-19T00:40:32;5.80;;;4.75;;
7961;SDS011;4026;43.652;24.906;2022-08-19T00:42:58;7.30;;;4.47;;
7961;SDS011;4026;43.652;24.906;2022-08-19T00:45:26;6.00;;;4.22;;
7961;SDS011;4026;43.652;24.906;2022-08-19T00:47:56;7.13;;;4.70;;
7961;SDS011;4026;43.652;24.906;2022-08-19T00:50:24;6.20;;;4.97;;
7961;SDS011;4026;43.652;24.906;2022-08-19T00:52:53;6.38;;;4.38;;
7961;SDS011;4026;43.652;24.906;2022-08-19T00:55:20;6.30;;;4.00;;
7961;SDS011;4026;43.652;24.906;2022-08-19T00:57:51;6.13;;;4.40;;
7961;SDS011;4026;43.652;24.906;2022-08-19T01:00:21;5.75;;;4.03;;
7961;SDS011;4026;43.652;24.906;2022-08-19T01:02:50;7.28;;;4.20;;
7961;SDS011;4026;43.652;24.906;2022-08-19T01:05:19;6.28;;;4.50;;
7961;SDS011;4026;43.652;24.906;2022-08-19T01:07:50;6.60;;;4.20;;
7961;SDS011;4026;43.652;24.906;2022-08-19T01:10:18;6.90;;;4.10;;
7961;SDS011;4026;43.652;24.906;2022-08-19T01:12:47;6.95;;;4.40;;
7961;SDS011;4026;43.652;24.906;2022-08-19T01:15:16;5.45;;;4.05;;
7961;SDS011;4026;43.652;24.906;2022-08-19T01:17:45;6.15;;;4.07;;
7961;SDS011;4026;43.652;24.906;2022-08-19T01:20:14;6.25;;;3.92;;
7961;SDS011;4026;43.652;24.906;2022-08-19T01:22:46;5.80;;;4.00;;
7961;SDS011;4026;43.652;24.906;2022-08-19T01:25:15;7.82;;;3.95;;
7961;SDS011;4026;43.652;24.906;2022-08-19T01:27:45;5.13;;;3.63;;
7961;SDS011;4026;43.652;24.906;2022-08-19T01:30:14;6.20;;;4.00;;
7961;SDS011;4026;43.652;24.906;2022-08-19T01:32:43;6.20;;;4.00;;
7961;SDS011;4026;43.652;24.906;2022-08-19T01:35:11;6.40;;;4.18;;
7961;SDS011;4026;43.652;24.906;2022-08-19T01:37:42;6.07;;;4.22;;
7961;SDS011;4026;43.652;24.906;2022-08-19T01:40:11;5.15;;;3.90;;
7961;SDS011;4026;43.652;24.906;2022-08-19T01:42:39;6.68;;;4.30;;
7961;SDS011;4026;43.652;24.906;2022-08-19T01:45:06;6.07;;;4.20;;
7961;SDS011;4026;43.652;24.906;2022-08-19T01:47:34;6.20;;;4.15;;
7961;SDS011;4026;43.652;24.906;2022-08-19T01:50:02;5.57;;;4.07;;
7961;SDS011;4026;43.652;24.906;2022-08-19T01:52:30;5.97;;;4.28;;
7961;SDS011;4026;43.652;24.906;2022-08-19T01:54:57;5.85;;;4.10;;
7961;SDS011;4026;43.652;24.906;2022-08-19T01:57:26;6.43;;;3.97;;
7961;SDS011;4026;43.652;24.906;2022-08-19T01:59:53;5.85;;;4.00;;
7961;SDS011;4026;43.652;24.906;2022-08-19T02:02:20;5.70;;;4.00;;
7961;SDS011;4026;43.652;24.906;2022-08-19T02:04:47;6.90;;;3.83;;
7961;SDS011;4026;43.652;24.906;2022-08-19T02:07:14;5.60;;;3.60;;
7961;SDS011;4026;43.652;24.906;2022-08-19T02:09:40;7.22;;;3.70;;
7961;SDS011;4026;43.652;24.906;2022-08-19T02:12:07;5.80;;;3.63;;
7961;SDS011;4026;43.652;24.906;2022-08-19T02:14:36;6.80;;;4.13;;
7961;SDS011;4026;43.652;24.906;2022-08-19T02:17:03;5.60;;;3.95;;
7961;SDS011;4026;43.652;24.906;2022-08-19T02:19:30;5.78;;;4.05;;
7961;SDS011;4026;43.652;24.906;2022-08-19T02:21:58;6.13;;;3.90;;
7961;SDS011;4026;43.652;24.906;2022-08-19T02:24:25;8.05;;;4.00;;
7961;SDS011;4026;43.652;24.906;2022-08-19T02:26:53;5.65;;;3.42;;
7961;SDS011;4026;43.652;24.906;2022-08-19T02:29:20;7.55;;;4.30;;
7961;SDS011;4026;43.652;24.906;2022-08-19T02:31:48;6.15;;;4.00;;
7961;SDS011;4026;43.652;24.906;2022-08-19T02:34:16;7.45;;;3.90;;
7961;SDS011;4026;43.652;24.906;2022-08-19T02:36:43;5.80;;;3.85;;
7961;SDS011;4026;43.652;24.906;2022-08-19T02:39:10;5.45;;;3.65;;
7961;SDS011;4026;43.652;24.906;2022-08-19T02:41:36;5.65;;;3.80;;
7961;SDS011;4026;43.652;24.906;2022-08-19T02:44:03;5.85;;;3.53;;
7961;SDS011;4026;43.652;24.906;2022-08-19T02:46:30;5.00;;;3.78;;
7961;SDS011;4026;43.652;24.906;2022-08-19T02:49:01;6.63;;;3.90;;
7961;SDS011;4026;43.652;24.906;2022-08-19T02:51:32;6.10;;;3.88;;
7961;SDS011;4026;43.652;24.906;2022-08-19T02:54:00;6.38;;;3.60;;
7961;SDS011;4026;43.652;24.906;2022-08-19T02:56:27;6.45;;;3.53;;
7961;SDS011;4026;43.652;24.906;2022-08-19T02:58:56;5.93;;;3.92;;
7961;SDS011;4026;43.652;24.906;2022-08-19T03:01:24;5.95;;;3.47;;
7961;SDS011;4026;43.652;24.906;2022-08-19T03:03:54;5.43;;;3.60;;
7961;SDS011;4026;43.652;24.906;2022-08-19T03:06:23;6.18;;;3.83;;
7961;SDS011;4026;43.652;24.906;2022-08-19T03:08:50;5.22;;;3.85;;
7961;SDS011;4026;43.652;24.906;2022-08-19T03:11:18;5.85;;;3.90;;
7961;SDS011;4026;43.652;24.906;2022-08-19T03:13:47;7.63;;;4.07;;
7961;SDS011;4026;43.652;24.906;2022-08-19T03:16:15;5.35;;;3.92;;
7961;SDS011;4026;43.652;24.906;2022-08-19T03:18:43;6.10;;;4.03;;
7961;SDS011;4026;43.652;24.906;2022-08-19T03:21:14;6.53;;;4.35;;
7961;SDS011;4026;43.652;24.906;2022-08-19T03:23:43;5.60;;;3.65;;
7961;SDS011;4026;43.652;24.906;2022-08-19T03:26:10;5.13;;;3.33;;
7961;SDS011;4026;43.652;24.906;2022-08-19T03:28:37;5.63;;;3.45;;
7961;SDS011;4026;43.652;24.906;2022-08-19T03:31:05;5.28;;;3.70;;
7961;SDS011;4026;43.652;24.906;2022-08-19T03:33:34;6.07;;;3.80;;
7961;SDS011;4026;43.652;24.906;2022-08-19T03:36:03;6.22;;;4.00;;
7961;SDS011;4026;43.652;24.906;2022-08-19T03:38:32;6.83;;;3.70;;
7961;SDS011;4026;43.652;24.906;2022-08-19T03:41:03;7.32;;;4.00;;
7961;SDS011;4026;43.652;24.906;2022-08-19T03:43:33;5.43;;;3.88;;
7961;SDS011;4026;43.652;24.906;2022-08-19T03:46:01;5.20;;;3.67;;
7961;SDS011;4026;43.652;24.906;2022-08-19T03:48:30;5.43;;;3.60;;
7961;SDS011;4026;43.652;24.906;2022-08-19T03:50:58;5.20;;;3.85;;
7961;SDS011;4026;43.652;24.906;2022-08-19T03:53:26;6.30;;;3.90;;
7961;SDS011;4026;43.652;24.906;2022-08-19T03:55:54;6.97;;;3.88;;
7961;SDS011;4026;43.652;24.906;2022-08-19T03:58:23;7.88;;;4.03;;
7961;SDS011;4026;43.652;24.906;2022-08-19T04:00:49;4.68;;;3.50;;
7961;SDS011;4026;43.652;24.906;2022-08-19T04:03:16;7.05;;;4.20;;
7961;SDS011;4026;43.652;24.906;2022-08-19T04:05:45;5.60;;;3.85;;
7961;SDS011;4026;43.652;24.906;2022-08-19T04:08:14;6.25;;;3.85;;
7961;SDS011;4026;43.652;24.906;2022-08-19T04:10:45;7.40;;;3.85;;
7961;SDS011;4026;43.652;24.906;2022-08-19T04:13:13;6.53;;;4.00;;
7961;SDS011;4026;43.652;24.906;2022-08-19T04:15:41;6.25;;;3.88;;
7961;SDS011;4026;43.652;24.906;2022-08-19T04:18:11;5.90;;;4.10;;
7961;SDS011;4026;43.652;24.906;2022-08-19T04:20:39;4.75;;;3.60;;
7961;SDS011;4026;43.652;24.906;2022-08-19T04:23:08;6.60;;;3.67;;
7961;SDS011;4026;43.652;24.906;2022-08-19T04:25:35;7.82;;;4.28;;
7961;SDS011;4026;43.652;24.906;2022-08-19T04:28:03;6.05;;;3.83;;
7961;SDS011;4026;43.652;24.906;2022-08-19T04:30:30;5.50;;;3.85;;
7961;SDS011;4026;43.652;24.906;2022-08-19T04:33:04;6.53;;;3.80;;
7961;SDS011;4026;43.652;24.906;2022-08-19T04:35:34;6.60;;;4.13;;
7961;SDS011;4026;43.652;24.906;2022-08-19T04:38:02;6.63;;;3.80;;
7961;SDS011;4026;43.652;24.906;2022-08-19T04:40:29;5.18;;;3.67;;
7961;SDS011;4026;43.652;24.906;2022-08-19T04:43:13;5.68;;;3.92;;
7961;SDS011;4026;43.652;24.906;2022-08-19T04:45:40;6.18;;;3.60;;
7961;SDS011;4026;43.652;24.906;2022-08-19T04:48:09;6.40;;;3.92;;
7961;SDS011;4026;43.652;24.906;2022-08-19T04:50:39;5.20;;;3.53;;
7961;SDS011;4026;43.652;24.906;2022-08-19T04:53:07;5.85;;;3.42;;
7961;SDS011;4026;43.652;24.906;2022-08-19T04:55:37;5.22;;;3.55;;
7961;SDS011;4026;43.652;24.906;2022-08-19T04:58:05;4.78;;;3.33;;
7961;SDS011;4026;43.652;24.906;2022-08-19T05:00:32;5.38;;;3.38;;
7961;SDS011;4026;43.652;24.906;2022-08-19T05:02:58;5.22;;;3.65;;
7961;SDS011;4026;43.652;24.906;2022-08-19T05:05:27;5.35;;;3.63;;
7961;SDS011;4026;43.652;24.906;2022-08-19T05:07:54;5.18;;;3.67;;
7961;SDS011;4026;43.652;24.906;2022-08-19T05:10:21;5.30;;;3.40;;
7961;SDS011;4026;43.652;24.906;2022-08-19T05:12:47;5.18;;;3.70;;
7961;SDS011;4026;43.652;24.906;2022-08-19T05:15:14;4.55;;;3.35;;
7961;SDS011;4026;43.652;24.906;2022-08-19T05:17:41;5.80;;;3.25;;
7961;SDS011;4026;43.652;24.906;2022-08-19T05:20:32;6.43;;;3.78;;
7961;SDS011;4026;43.652;24.906;2022-08-19T05:23:16;4.40;;;3.13;;
7961;SDS011;4026;43.652;24.906;2022-08-19T05:25:43;4.78;;;3.60;;
7961;SDS011;4026;43.652;24.906;2022-08-19T05:28:10;5.47;;;3.08;;
7961;SDS011;4026;43.652;24.906;2022-08-19T05:30:36;5.25;;;3.38;;
7961;SDS011;4026;43.652;24.906;2022-08-19T05:33:05;4.97;;;3.58;;
7961;SDS011;4026;43.652;24.906;2022-08-19T05:35:36;5.55;;;3.42;;
7961;SDS011;4026;43.652;24.906;2022-08-19T05:38:04;5.70;;;3.22;;
7961;SDS011;4026;43.652;24.906;2022-08-19T05:40:33;7.45;;;3.88;;
7961;SDS011;4026;43.652;24.906;2022-08-19T05:43:01;4.65;;;3.40;;
7961;SDS011;4026;43.652;24.906;2022-08-19T05:45:28;4.68;;;3.70;;
7961;SDS011;4026;43.652;24.906;2022-08-19T05:47:55;6.63;;;3.40;;
7961;SDS011;4026;43.652;24.906;2022-08-19T05:50:23;4.97;;;3.50;;
7961;SDS011;4026;43.652;24.906;2022-08-19T05:52:52;4.55;;;3.67;;
7961;SDS011;4026;43.652;24.906;2022-08-19T05:55:19;5.28;;;3.75;;
7961;SDS011;4026;43.652;24.906;2022-08-19T05:57:46;5.15;;;3.60;;
7961;SDS011;4026;43.652;24.906;2022-08-19T06:00:13;4.97;;;3.80;;
7961;SDS011;4026;43.652;24.906;2022-08-19T06:02:40;6.55;;;3.83;;
7961;SDS011;4026;43.652;24.906;2022-08-19T06:05:07;5.60;;;3.63;;
7961;SDS011;4026;43.652;24.906;2022-08-19T06:07:35;4.85;;;3.80;;
7961;SDS011;4026;43.652;24.906;2022-08-19T06:10:04;6.65;;;4.30;;
7961;SDS011;4026;43.652;24.906;2022-08-19T06:12:33;5.82;;;3.80;;
7961;SDS011;4026;43.652;24.906;2022-08-19T06:15:02;6.40;;;3.67;;
7961;SDS011;4026;43.652;24.906;2022-08-19T06:17:31;4.18;;;3.55;;
7961;SDS011;4026;43.652;24.906;2022-08-19T06:19:59;8.38;;;3.92;;
7961;SDS011;4026;43.652;24.906;2022-08-19T06:22:27;4.85;;;3.72;;
7961;SDS011;4026;43.652;24.906;2022-08-19T06:24:54;5.03;;;3.72;;
7961;SDS011;4026;43.652;24.906;2022-08-19T06:27:23;5.22;;;3.47;;
7961;SDS011;4026;43.652;24.906;2022-08-19T06:29:50;4.20;;;3.47;;
7961;SDS011;4026;43.652;24.906;2022-08-19T06:32:18;5.25;;;3.80;;
7961;SDS011;4026;43.652;24.906;2022-08-19T06:34:45;4.78;;;3.70;;
7961;SDS011;4026;43.652;24.906;2022-08-19T06:37:12;4.45;;;3.45;;
7961;SDS011;4026;43.652;24.906;2022-08-19T06:39:40;3.80;;;3.20;;
7961;SDS011;4026;43.652;24.906;2022-08-19T06:42:09;4.72;;;3.70;;
7961;SDS011;4026;43.652;24.906;2022-08-19T06:44:40;4.43;;;3.50;;
7961;SDS011;4026;43.652;24.906;2022-08-19T06:47:10;4.80;;;3.38;;
7961;SDS011;4026;43.652;24.906;2022-08-19T06:49:39;5.97;;;3.80;;
7961;SDS011;4026;43.652;24.906;2022-08-19T06:52:07;5.53;;;3.83;;
7961;SDS011;4026;43.652;24.906;2022-08-19T06:54:36;7.05;;;3.70;;
7961;SDS011;4026;43.652;24.906;2022-08-19T06:57:04;5.00;;;3.50;;
7961;SDS011;4026;43.652;24.906;2022-08-19T06:59:32;5.10;;;3.92;;
7961;SDS011;4026;43.652;24.906;2022-08-19T07:02:02;5.57;;;3.65;;
7961;SDS011;4026;43.652;24.906;2022-08-19T07:04:31;4.15;;;3.70;;
7961;SDS011;4026;43.652;24.906;2022-08-19T07:06:59;5.40;;;4.03;;
7961;SDS011;4026;43.652;24.906;2022-08-19T07:09:28;4.85;;;3.58;;
7961;SDS011;4026;43.652;24.906;2022-08-19T07:11:56;4.82;;;3.70;;
7961;SDS011;4026;43.652;24.906;2022-08-19T07:14:23;4.05;;;3.55;;
7961;SDS011;4026;43.652;24.906;2022-08-19T07:16:52;5.40;;;4.00;;
7961;SDS011;4026;43.652;24.906;2022-08-19T07:19:22;4.60;;;3.60;;
7961;SDS011;4026;43.652;24.906;2022-08-19T07:21:51;4.40;;;3.45;;
7961;SDS011;4026;43.652;24.906;2022-08-19T07:24:20;4.32;;;3.70;;
7961;SDS011;4026;43.652;24.906;2022-08-19T07:26:49;7.43;;;3.60;;
7961;SDS011;4026;43.652;24.906;2022-08-19T07:29:18;4.72;;;3.45;;
7961;SDS011;4026;43.652;24.906;2022-08-19T07:31:48;4.57;;;3.58;;
7961;SDS011;4026;43.652;24.906;2022-08-19T07:34:15;4.85;;;3.80;;
7961;SDS011;4026;43.652;24.906;2022-08-19T07:36:45;5.82;;;3.45;;
7961;SDS011;4026;43.652;24.906;2022-08-19T07:39:13;5.65;;;3.63;;
7961;SDS011;4026;43.652;24.906;2022-08-19T07:41:43;5.00;;;3.60;;
7961;SDS011;4026;43.652;24.906;2022-08-19T07:44:12;4.85;;;3.60;;
7961;SDS011;4026;43.652;24.906;2022-08-19T07:46:41;5.03;;;3.65;;
7961;SDS011;4026;43.652;24.906;2022-08-19T07:49:09;3.90;;;3.33;;
7961;SDS011;4026;43.652;24.906;2022-08-19T07:51:46;5.00;;;3.55;;
7961;SDS011;4026;43.652;24.906;2022-08-19T07:54:14;5.07;;;3.70;;
7961;SDS011;4026;43.652;24.906;2022-08-19T07:56:41;5.82;;;3.53;;
7961;SDS011;4026;43.652;24.906;2022-08-19T07:59:08;5.20;;;3.65;;
7961;SDS011;4026;43.652;24.906;2022-08-19T08:01:35;5.95;;;3.63;;
7961;SDS011;4026;43.652;24.906;2022-08-19T08:04:02;4.45;;;3.45;;
7961;SDS011;4026;43.652;24.906;2022-08-19T08:06:48;4.45;;;3.47;;
7961;SDS011;4026;43.652;24.906;2022-08-19T08:09:36;4.95;;;3.78;;
7961;SDS011;4026;43.652;24.906;2022-08-19T08:12:05;4.72;;;3.63;;
7961;SDS011;4026;43.652;24.906;2022-08-19T08:14:35;5.97;;;3.63;;
7961;SDS011;4026;43.652;24.906;2022-08-19T08:17:04;5.25;;;3.95;;
7961;SDS011;4026;43.652;24.906;2022-08-19T08:19:32;5.13;;;3.67;;
7961;SDS011;4026;43.652;24.906;2022-08-19T08:22:00;5.25;;;3.67;;
7961;SDS011;4026;43.652;24.906;2022-08-19T08:24:29;4.47;;;3.75;;
7961;SDS011;4026;43.652;24.906;2022-08-19T08:26:58;5.18;;;3.90;;
7961;SDS011;4026;43.652;24.906;2022-08-19T08:29:27;5.07;;;3.78;;
7961;SDS011;4026;43.652;24.906;2022-08-19T08:31:55;4.75;;;3.70;;
7961;SDS011;4026;43.652;24.906;2022-08-19T08:34:23;4.10;;;3.40;;
7961;SDS011;4026;43.652;24.906;2022-08-19T08:36:50;4.70;;;3.72;;
7961;SDS011;4026;43.652;24.906;2022-08-19T08:39:19;4.93;;;3.65;;
7961;SDS011;4026;43.652;24.906;2022-08-19T08:41:49;4.78;;;3.90;;
7961;SDS011;4026;43.652;24.906;2022-08-19T08:44:23;5.00;;;3.80;;
7961;SDS011;4026;43.652;24.906;2022-08-19T08:47:09;4.97;;;3.95;;
7961;SDS011;4026;43.652;24.906;2022-08-19T08:49:40;4.00;;;3.35;;
7961;SDS011;4026;43.652;24.906;2022-08-19T08:52:11;4.57;;;3.60;;
7961;SDS011;4026;43.652;24.906;2022-08-19T08:54:47;6.25;;;3.70;;
7961;SDS011;4026;43.652;24.906;2022-08-19T08:57:19;4.82;;;3.63;;
7961;SDS011;4026;43.652;24.906;2022-08-19T08:59:51;4.40;;;4.00;;
7961;SDS011;4026;43.652;24.906;2022-08-19T09:02:22;5.03;;;3.97;;
7961;SDS011;4026;43.652;24.906;2022-08-19T09:04:49;7.97;;;3.70;;
7961;SDS011;4026;43.652;24.906;2022-08-19T09:07:23;6.35;;;3.90;;
7961;SDS011;4026;43.652;24.906;2022-08-19T09:10:04;5.63;;;3.80;;
7961;SDS011;4026;43.652;24.906;2022-08-19T09:12:39;6.30;;;4.20;;
7961;SDS011;4026;43.652;24.906;2022-08-19T09:15:20;5.07;;;3.90;;
7961;SDS011;4026;43.652;24.906;2022-08-19T09:17:52;5.72;;;4.10;;
7961;SDS011;4026;43.652;24.906;2022-08-19T09:20:20;5.07;;;4.15;;
7961;SDS011;4026;43.652;24.906;2022-08-19T09:22:49;4.93;;;3.90;;
7961;SDS011;4026;43.652;24.906;2022-08-19T09:25:18;4.55;;;3.88;;
7961;SDS011;4026;43.652;24.906;2022-08-19T09:27:47;5.00;;;3.65;;
7961;SDS011;4026;43.652;24.906;2022-08-19T09:30:15;5.88;;;4.00;;
7961;SDS011;4026;43.652;24.906;2022-08-19T09:32:44;6.68;;;4.07;;
7961;SDS011;4026;43.652;24.906;2022-08-19T09:35:12;5.55;;;4.10;;
7961;SDS011;4026;43.652;24.906;2022-08-19T09:37:39;4.45;;;3.90;;
7961;SDS011;4026;43.652;24.906;2022-08-19T09:40:08;4.43;;;3.90;;
7961;SDS011;4026;43.652;24.906;2022-08-19T09:42:37;5.10;;;3.95;;
7961;SDS011;4026;43.652;24.906;2022-08-19T09:45:05;4.57;;;3.92;;
7961;SDS011;4026;43.652;24.906;2022-08-19T09:47:32;4.45;;;3.85;;
7961;SDS011;4026;43.652;24.906;2022-08-19T09:50:01;5.43;;;3.90;;
7961;SDS011;4026;43.652;24.906;2022-08-19T09:52:28;4.90;;;3.90;;
7961;SDS011;4026;43.652;24.906;2022-08-19T09:54:55;4.25;;;3.40;;
7961;SDS011;4026;43.652;24.906;2022-08-19T09:57:22;4.18;;;3.47;;
7961;SDS011;4026;43.652;24.906;2022-08-19T09:59:50;5.82;;;3.67;;
7961;SDS011;4026;43.652;24.906;2022-08-19T10:02:18;4.10;;;3.70;;
7961;SDS011;4026;43.652;24.906;2022-08-19T10:04:45;5.55;;;3.90;;
7961;SDS011;4026;43.652;24.906;2022-08-19T10:07:29;5.07;;;3.90;;
7961;SDS011;4026;43.652;24.906;2022-08-19T10:09:56;4.45;;;3.70;;
7961;SDS011;4026;43.652;24.906;2022-08-19T10:12:23;4.32;;;3.92;;
7961;SDS011;4026;43.652;24.906;2022-08-19T10:14:51;4.93;;;3.88;;
7961;SDS011;4026;43.652;24.906;2022-08-19T10:17:19;4.82;;;3.97;;
7961;SDS011;4026;43.652;24.906;2022-08-19T10:19:46;4.72;;;3.95;;
7961;SDS011;4026;43.652;24.906;2022-08-19T10:22:13;4.72;;;4.10;;
7961;SDS011;4026;43.652;24.906;2022-08-19T10:24:40;4.82;;;3.72;;
7961;SDS011;4026;43.652;24.906;2022-08-19T10:27:07;5.55;;;4.38;;
7961;SDS011;4026;43.652;24.906;2022-08-19T10:29:34;4.60;;;3.88;;
7961;SDS011;4026;43.652;24.906;2022-08-19T10:32:04;5.07;;;3.88;;
7961;SDS011;4026;43.652;24.906;2022-08-19T10:34:33;4.88;;;3.95;;
7961;SDS011;4026;43.652;24.906;2022-08-19T10:37:01;4.10;;;3.70;;
7961;SDS011;4026;43.652;24.906;2022-08-19T10:39:30;5.10;;;4.00;;
7961;SDS011;4026;43.652;24.906;2022-08-19T10:41:57;4.57;;;3.83;;
7961;SDS011;4026;43.652;24.906;2022-08-19T10:44:24;4.13;;;3.67;;
7961;SDS011;4026;43.652;24.906;2022-08-19T10:46:51;5.53;;;4.00;;
7961;SDS011;4026;43.652;24.906;2022-08-19T10:49:20;5.15;;;4.18;;
7961;SDS011;4026;43.652;24.906;2022-08-19T10:51:49;4.30;;;3.72;;
7961;SDS011;4026;43.652;24.906;2022-08-19T10:54:36;4.72;;;4.15;;
7961;SDS011;4026;43.652;24.906;2022-08-19T10:57:20;4.15;;;3.70;;
7961;SDS011;4026;43.652;24.906;2022-08-19T10:59:49;4.38;;;3.85;;
7961;SDS011;4026;43.652;24.906;2022-08-19T11:02:16;4.20;;;3.60;;
7961;SDS011;4026;43.652;24.906;2022-08-19T11:04:44;4.38;;;3.97;;
7961;SDS011;4026;43.652;24.906;2022-08-19T11:07:11;4.95;;;3.55;;
7961;SDS011;4026;43.652;24.906;2022-08-19T11:09:39;4.65;;;4.00;;
7961;SDS011;4026;43.652;24.906;2022-08-19T11:12:08;4.32;;;3.85;;
7961;SDS011;4026;43.652;24.906;2022-08-19T11:14:36;4.50;;;3.95;;
7961;SDS011;4026;43.652;24.906;2022-08-19T11:17:03;4.07;;;3.67;;
7961;SDS011;4026;43.652;24.906;2022-08-19T11:19:31;5.35;;;3.50;;
7961;SDS011;4026;43.652;24.906;2022-08-19T11:22:00;5.55;;;4.05;;
7961;SDS011;4026;43.652;24.906;2022-08-19T11:24:28;4.65;;;4.10;;
7961;SDS011;4026;43.652;24.906;2022-08-19T11:27:00;4.93;;;4.00;;
7961;SDS011;4026;43.652;24.906;2022-08-19T11:29:29;4.00;;;3.55;;
7961;SDS011;4026;43.652;24.906;2022-08-19T11:31:57;5.53;;;3.83;;
7961;SDS011;4026;43.652;24.906;2022-08-19T11:34:27;3.67;;;3.28;;
7961;SDS011;4026;43.652;24.906;2022-08-19T11:36:55;6.32;;;3.78;;
7961;SDS011;4026;43.652;24.906;2022-08-19T11:39:26;5.47;;;3.85;;
7961;SDS011;4026;43.652;24.906;2022-08-19T11:41:55;4.30;;;3.80;;
7961;SDS011;4026;43.652;24.906;2022-08-19T11:44:25;4.20;;;3.78;;
7961;SDS011;4026;43.652;24.906;2022-08-19T11:46:52;4.65;;;3.70;;
7961;SDS011;4026;43.652;24.906;2022-08-19T11:49:19;4.45;;;3.80;;
7961;SDS011;4026;43.652;24.906;2022-08-19T11:51:47;4.90;;;4.00;;
7961;SDS011;4026;43.652;24.906;2022-08-19T11:54:15;5.63;;;4.07;;
7961;SDS011;4026;43.652;24.906;2022-08-19T11:56:44;4.32;;;3.92;;
7961;SDS011;4026;43.652;24.906;2022-08-19T11:59:12;4.75;;;3.80;;
7961;SDS011;4026;43.652;24.906;2022-08-19T12:01:39;5.03;;;3.88;;
7961;SDS011;4026;43.652;24.906;2022-08-19T12:04:07;4.50;;;3.85;;
7961;SDS011;4026;43.652;24.906;2022-08-19T12:06:37;4.00;;;3.60;;
7961;SDS011;4026;43.652;24.906;2022-08-19T12:09:06;4.82;;;3.88;;
7961;SDS011;4026;43.652;24.906;2022-08-19T12:11:34;5.28;;;3.80;;
7961;SDS011;4026;43.652;24.906;2022-08-19T12:14:03;4.78;;;3.88;;
7961;SDS011;4026;43.652;24.906;2022-08-19T12:16:31;5.50;;;3.90;;
7961;SDS011;4026;43.652;24.906;2022-08-19T12:18:58;4.47;;;3.88;;
7961;SDS011;4026;43.652;24.906;2022-08-19T12:21:29;5.72;;;4.03;;
7961;SDS011;4026;43.652;24.906;2022-08-19T12:23:58;4.93;;;3.90;;
7961;SDS011;4026;43.652;24.906;2022-08-19T12:26:26;6.72;;;3.90;;
7961;SDS011;4026;43.652;24.906;2022-08-19T12:28:54;6.20;;;4.00;;
7961;SDS011;4026;43.652;24.906;2022-08-19T12:31:25;5.30;;;4.10;;
7961;SDS011;4026;43.652;24.906;2022-08-19T12:33:53;5.75;;;3.90;;
7961;SDS011;4026;43.652;24.906;2022-08-19T12:36:20;5.80;;;3.53;;
7961;SDS011;4026;43.652;24.906;2022-08-19T12:38:48;5.68;;;3.60;;
7961;SDS011;4026;43.652;24.906;2022-08-19T12:41:15;4.93;;;3.70;;
7961;SDS011;4026;43.652;24.906;2022-08-19T12:43:43;5.13;;;3.85;;
7961;SDS011;4026;43.652;24.906;2022-08-19T12:46:10;4.22;;;3.70;;
7961;SDS011;4026;43.652;24.906;2022-08-19T12:48:40;5.35;;;3.95;;
7961;SDS011;4026;43.652;24.906;2022-08-19T12:51:10;4.45;;;3.65;;
7961;SDS011;4026;43.652;24.906;2022-08-19T12:53:39;4.10;;;3.70;;
7961;SDS011;4026;43.652;24.906;2022-08-19T12:56:09;4.95;;;3.85;;
7961;SDS011;4026;43.652;24.906;2022-08-19T12:58:37;3.90;;;3.50;;
7961;SDS011;4026;43.652;24.906;2022-08-19T13:01:07;4.78;;;3.80;;
7961;SDS011;4026;43.652;24.906;2022-08-19T13:03:35;4.95;;;3.78;;
7961;SDS011;4026;43.652;24.906;2022-08-19T13:06:04;5.45;;;3.97;;
7961;SDS011;4026;43.652;24.906;2022-08-19T13:08:31;5.18;;;3.53;;
7961;SDS011;4026;43.652;24.906;2022-08-19T13:11:06;3.92;;;3.42;;
7961;SDS011;4026;43.652;24.906;2022-08-19T13:13:33;5.43;;;3.90;;
7961;SDS011;4026;43.652;24.906;2022-08-19T13:16:00;5.10;;;3.90;;
7961;SDS011;4026;43.652;24.906;2022-08-19T13:18:28;4.35;;;3.75;;
7961;SDS011;4026;43.652;24.906;2022-08-19T13:20:56;4.20;;;3.65;;
7961;SDS011;4026;43.652;24.906;2022-08-19T13:23:24;4.28;;;3.55;;
7961;SDS011;4026;43.652;24.906;2022-08-19T13:26:01;5.03;;;4.03;;
7961;SDS011;4026;43.652;24.906;2022-08-19T13:28:29;5.15;;;3.80;;
7961;SDS011;4026;43.652;24.906;2022-08-19T13:31:17;4.70;;;3.80;;
7961;SDS011;4026;43.652;24.906;2022-08-19T13:34:02;5.10;;;3.80;;
7961;SDS011;4026;43.652;24.906;2022-08-19T13:36:30;4.32;;;3.83;;
7961;SDS011;4026;43.652;24.906;2022-08-19T13:38:59;4.30;;;3.55;;
7961;SDS011;4026;43.652;24.906;2022-08-19T13:41:26;5.68;;;4.32;;
7961;SDS011;4026;43.652;24.906;2022-08-19T13:43:53;4.82;;;3.80;;
7961;SDS011;4026;43.652;24.906;2022-08-19T13:46:21;4.60;;;3.83;;
7961;SDS011;4026;43.652;24.906;2022-08-19T13:48:48;4.68;;;3.70;;
7961;SDS011;4026;43.652;24.906;2022-08-19T13:51:15;5.28;;;4.10;;
7961;SDS011;4026;43.652;24.906;2022-08-19T13:53:43;5.30;;;4.20;;
7961;SDS011;4026;43.652;24.906;2022-08-19T13:56:13;4.35;;;3.80;;
7961;SDS011;4026;43.652;24.906;2022-08-19T13:58:41;4.60;;;3.63;;
7961;SDS011;4026;43.652;24.906;2022-08-19T14:01:08;5.05;;;4.07;;
7961;SDS011;4026;43.652;24.906;2022-08-19T14:03:36;4.43;;;3.65;;
7961;SDS011;4026;43.652;24.906;2022-08-19T14:06:04;4.65;;;3.83;;
7961;SDS011;4026;43.652;24.906;2022-08-19T14:08:31;4.22;;;3.60;;
7961;SDS011;4026;43.652;24.906;2022-08-19T14:10:58;5.05;;;3.85;;
7961;SDS011;4026;43.652;24.906;2022-08-19T14:13:27;4.50;;;3.70;;
7961;SDS011;4026;43.652;24.906;2022-08-19T14:15:54;4.78;;;3.92;;
7961;SDS011;4026;43.652;24.906;2022-08-19T14:18:20;5.28;;;3.67;;
7961;SDS011;4026;43.652;24.906;2022-08-19T14:20:47;4.05;;;3.53;;
7961;SDS011;4026;43.652;24.906;2022-08-19T14:23:14;4.65;;;4.05;;
7961;SDS011;4026;43.652;24.906;2022-08-19T14:25:41;6.28;;;4.03;;
7961;SDS011;4026;43.652;24.906;2022-08-19T14:28:08;4.90;;;3.47;;
7961;SDS011;4026;43.652;24.906;2022-08-19T14:30:37;5.18;;;3.95;;
7961;SDS011;4026;43.652;24.906;2022-08-19T14:33:04;5.30;;;3.65;;
7961;SDS011;4026;43.652;24.906;2022-08-19T14:35:33;4.95;;;3.97;;
7961;SDS011;4026;43.652;24.906;2022-08-19T14:38:00;6.72;;;3.97;;
7961;SDS011;4026;43.652;24.906;2022-08-19T14:40:28;5.18;;;3.78;;
7961;SDS011;4026;43.652;24.906;2022-08-19T14:42:57;4.68;;;3.70;;
7961;SDS011;4026;43.652;24.906;2022-08-19T14:45:29;4.57;;;3.55;;
7961;SDS011;4026;43.652;24.906;2022-08-19T14:47:58;4.60;;;3.60;;
7961;SDS011;4026;43.652;24.906;2022-08-19T14:50:25;5.03;;;3.88;;
7961;SDS011;4026;43.652;24.906;2022-08-19T14:52:57;4.40;;;3.78;;
7961;SDS011;4026;43.652;24.906;2022-08-19T14:55:25;4.75;;;4.05;;
7961;SDS011;4026;43.652;24.906;2022-08-19T14:57:52;4.28;;;3.65;;
7961;SDS011;4026;43.652;24.906;2022-08-19T15:00:19;6.10;;;3.50;;
7961;SDS011;4026;43.652;24.906;2022-08-19T15:02:46;4.07;;;3.63;;
7961;SDS011;4026;43.652;24.906;2022-08-19T15:05:14;4.35;;;3.80;;
7961;SDS011;4026;43.652;24.906;2022-08-19T15:07:41;4.78;;;3.47;;
7961;SDS011;4026;43.652;24.906;2022-08-19T15:10:09;5.18;;;3.85;;